Time;durP1;ratioP1;P1;durP2;ratioP2;P2;SDS_P1;SDS_P2;PMS_P1;PMS_P2;Temp;Humidity;BMP_temperature;BMP_pressure;BME280_temperature;BME280_humidity;BME280_pressure;Samples;Min_cycle;Max_cycle;Signal;HPM_P1;HPM_P2
2023/05/22 00:01:18;;;;;;;39.80;28.17;;;18.10;99.90;;;;;;5033233;28;20186;-65
2023/05/22 00:03:44;;;;;;;37.60;29.43;;;18.10;99.90;;;;;;5033261;28;20186;-65
2023/05/22 00:06:10;;;;;;;37.73;29.53;;;18.10;99.90;;;;;;5033622;28;20262;-65
2023/05/22 00:08:37;;;;;;;36.60;27.73;;;18.00;99.90;;;;;;5033075;28;20591;-65
2023/05/22 00:11:02;;;;;;;45.07;28.97;;;18.00;99.90;;;;;;5033169;28;20606;-65
2023/05/22 00:13:28;;;;;;;38.47;27.77;;;18.00;99.90;;;;;;5031694;28;20176;-65
2023/05/22 00:15:54;;;;;;;37.90;30.03;;;18.00;99.90;;;;;;5033490;28;20172;-65
2023/05/22 00:18:19;;;;;;;38.87;30.67;;;18.00;99.90;;;;;;5032962;28;20188;-65
2023/05/22 00:20:45;;;;;;;40.47;29.13;;;18.00;99.90;;;;;;5033036;28;20192;-65
2023/05/22 00:23:11;;;;;;;38.80;28.37;;;18.00;99.90;;;;;;5032981;28;20175;-65
2023/05/22 00:25:38;;;;;;;40.47;28.73;;;17.90;99.90;;;;;;5033068;28;20614;-65
2023/05/22 00:28:04;;;;;;;36.50;28.83;;;17.90;99.90;;;;;;5032827;28;20182;-65
2023/05/22 00:30:30;;;;;;;38.50;27.37;;;17.90;99.90;;;;;;5032690;28;20199;-65
2023/05/22 00:32:56;;;;;;;39.40;27.33;;;17.90;99.90;;;;;;5032811;28;20183;-65
2023/05/22 00:35:22;;;;;;;38.40;28.13;;;17.80;99.90;;;;;;5032861;28;20533;-65
2023/05/22 00:37:47;;;;;;;40.60;28.73;;;17.80;99.90;;;;;;5033093;28;20586;-65
2023/05/22 00:40:17;;;;;;;37.33;27.70;;;17.80;99.90;;;;;;5032363;28;20207;-65
2023/05/22 00:42:43;;;;;;;36.40;27.63;;;17.70;99.90;;;;;;5032918;28;20513;-65
2023/05/22 00:45:15;;;;;;;35.43;27.63;;;17.70;99.90;;;;;;5032402;28;20262;-65
2023/05/22 00:47:41;;;;;;;41.13;27.43;;;17.60;99.90;;;;;;5032749;28;20170;-65
2023/05/22 00:50:09;;;;;;;31.77;25.73;;;17.60;99.90;;;;;;5032191;28;20203;-65
2023/05/22 00:52:40;;;;;;;36.47;26.30;;;17.60;99.90;;;;;;5032657;28;20168;-65
2023/05/22 00:55:07;;;;;;;38.27;26.13;;;17.60;99.90;;;;;;5032530;28;20183;-65
2023/05/22 00:57:33;;;;;;;36.03;25.77;;;17.60;99.90;;;;;;5032506;28;20172;-64
2023/05/22 01:00:01;;;;;;;35.63;26.60;;;17.60;99.90;;;;;;5032184;28;20203;-64
2023/05/22 01:02:31;;;;;;;34.93;24.87;;;17.60;99.90;;;;;;5032426;28;20258;-65
2023/05/22 01:04:57;;;;;;;41.97;27.97;;;17.50;99.90;;;;;;5032246;28;20175;-65
2023/05/22 01:07:23;;;;;;;42.63;28.87;;;17.50;99.90;;;;;;5032175;28;20175;-65
2023/05/22 01:09:51;;;;;;;41.33;30.83;;;17.50;99.90;;;;;;5030478;28;20329;-65
2023/05/22 01:12:44;;;;;;;43.63;30.47;;;17.40;99.90;;;;;;5032223;28;20179;-65
2023/05/22 01:15:23;;;;;;;44.93;31.27;;;17.40;99.90;;;;;;5031966;28;20229;-65
2023/05/22 01:18:18;;;;;;;44.17;30.23;;;17.40;99.90;;;;;;5032001;28;20209;-65
2023/05/22 01:21:03;;;;;;;44.97;32.57;;;17.40;99.90;;;;;;5031563;28;20274;-65
2023/05/22 01:23:28;;;;;;;45.17;31.67;;;17.40;99.90;;;;;;5031979;28;20180;-65
2023/05/22 01:26:02;;;;;;;45.07;30.13;;;17.40;99.90;;;;;;5032229;28;20168;-65
2023/05/22 01:29:03;;;;;;;41.83;29.87;;;17.40;99.90;;;;;;5031855;28;20226;-64
2023/05/22 01:31:31;;;;;;;42.93;29.87;;;17.40;99.90;;;;;;4989462;28;20679;-65
2023/05/22 01:34:00;;;;;;;42.30;30.23;;;17.30;99.90;;;;;;5023528;28;20195;-65
2023/05/22 01:36:30;;;;;;;40.13;29.83;;;17.30;99.90;;;;;;5030698;28;20206;-65
2023/05/22 01:39:00;;;;;;;39.70;28.87;;;17.30;99.90;;;;;;5031963;28;20180;-65
2023/05/22 01:41:27;;;;;;;39.07;28.87;;;17.30;99.90;;;;;;5031073;28;20229;-65
2023/05/22 01:43:53;;;;;;;40.30;29.60;;;17.20;99.90;;;;;;5031908;28;20199;-65
2023/05/22 01:46:19;;;;;;;41.43;29.27;;;17.20;99.90;;;;;;5031469;28;20215;-65
2023/05/22 01:48:44;;;;;;;37.33;28.40;;;17.20;99.90;;;;;;5031611;28;20294;-65
2023/05/22 01:51:38;;;;;;;38.83;27.27;;;17.20;99.90;;;;;;5031209;28;20262;-65
2023/05/22 01:54:17;;;;;;;39.27;28.33;;;17.20;99.90;;;;;;5031895;28;20532;-65
2023/05/22 01:56:54;;;;;;;38.20;26.50;;;17.20;99.90;;;;;;5031412;28;20176;-65
2023/05/22 01:59:33;;;;;;;36.00;26.90;;;17.10;99.90;;;;;;5031182;28;20210;-65
2023/05/22 02:02:04;;;;;;;38.67;26.70;;;17.10;99.90;;;;;;5030053;28;20175;-65
2023/05/22 02:04:31;;;;;;;34.17;27.30;;;17.10;99.90;;;;;;5031480;28;20616;-65
2023/05/22 02:06:59;;;;;;;34.73;26.77;;;17.00;99.90;;;;;;5031325;28;20642;-65
2023/05/22 02:09:29;;;;;;;32.73;25.20;;;17.00;99.90;;;;;;5030673;28;20203;-65
2023/05/22 02:11:54;;;;;;;34.70;27.30;;;17.00;99.90;;;;;;5031734;28;20180;-65
2023/05/22 02:14:21;;;;;;;31.67;26.37;;;17.00;99.90;;;;;;5031327;28;20258;-65
2023/05/22 02:16:47;;;;;;;35.60;26.80;;;17.00;99.90;;;;;;5031165;28;20218;-65
2023/05/22 02:19:14;;;;;;;37.27;26.90;;;17.00;99.90;;;;;;5031149;28;20692;-65
2023/05/22 02:21:39;;;;;;;36.17;26.03;;;16.90;99.90;;;;;;5030909;28;20194;-65
2023/05/22 02:24:05;;;;;;;31.90;25.73;;;16.90;99.90;;;;;;5031394;28;20163;-70
2023/05/22 02:26:31;;;;;;;32.53;25.07;;;16.90;99.90;;;;;;5031858;28;20183;-73
2023/05/22 02:28:57;;;;;;;35.57;25.90;;;16.90;99.90;;;;;;5035903;28;20609;-68
2023/05/22 02:31:23;;;;;;;35.03;26.37;;;16.80;99.90;;;;;;5035623;28;20176;-71
2023/05/22 02:33:49;;;;;;;30.97;25.63;;;16.80;99.90;;;;;;5034903;28;20175;-71
2023/05/22 02:36:14;;;;;;;36.93;25.93;;;16.80;99.90;;;;;;5035227;28;20191;-68
2023/05/22 02:38:40;;;;;;;38.30;27.27;;;16.80;99.90;;;;;;5034852;28;20175;-69
2023/05/22 02:41:07;;;;;;;36.27;27.90;;;16.70;99.90;;;;;;5035650;28;20203;-72
2023/05/22 02:43:32;;;;;;;35.93;27.77;;;16.70;99.90;;;;;;5035339;28;20257;-70
2023/05/22 02:45:58;;;;;;;38.43;28.70;;;16.70;99.90;;;;;;5036009;28;20618;-71
2023/05/22 02:48:24;;;;;;;42.33;29.87;;;16.60;99.90;;;;;;5035315;28;20611;-70
2023/05/22 02:50:49;;;;;;;38.83;27.70;;;16.60;99.90;;;;;;5035446;28;20278;-70
2023/05/22 02:53:16;;;;;;;36.13;26.10;;;16.60;99.90;;;;;;5035507;28;20221;-68
2023/05/22 02:55:41;;;;;;;32.70;25.20;;;16.50;99.90;;;;;;5035662;28;20167;-72
2023/05/22 02:58:10;;;;;;;34.97;26.03;;;16.40;99.90;;;;;;5035898;28;20250;-67
2023/05/22 03:00:37;;;;;;;30.70;23.83;;;16.40;99.90;;;;;;5035679;28;20199;-70
2023/05/22 03:03:03;;;;;;;29.67;24.63;;;16.30;99.90;;;;;;5035813;28;20198;-68
2023/05/22 03:05:30;;;;;;;37.10;25.77;;;16.30;99.90;;;;;;5035236;28;20167;-70
2023/05/22 03:07:56;;;;;;;28.77;24.53;;;16.30;99.90;;;;;;5035837;28;20183;-69
2023/05/22 03:10:21;;;;;;;35.60;25.83;;;16.30;99.90;;;;;;5035072;28;20211;-70
2023/05/22 03:12:47;;;;;;;31.87;25.10;;;16.20;99.90;;;;;;5034610;28;20214;-71
2023/05/22 03:15:13;;;;;;;33.43;24.63;;;16.20;99.90;;;;;;5035487;28;20178;-68
2023/05/22 03:17:38;;;;;;;30.50;25.73;;;16.10;99.90;;;;;;5035535;28;20174;-69
2023/05/22 03:20:05;;;;;;;37.90;25.13;;;16.10;99.90;;;;;;5034976;28;20203;-69
2023/05/22 03:22:31;;;;;;;32.23;24.00;;;16.00;99.90;;;;;;5034452;28;20207;-66
2023/05/22 03:24:57;;;;;;;28.13;22.83;;;16.00;99.90;;;;;;5034109;28;20726;-68
2023/05/22 03:27:22;;;;;;;26.27;22.00;;;16.00;99.90;;;;;;5035625;28;20524;-69
2023/05/22 03:29:48;;;;;;;31.70;22.67;;;15.90;99.90;;;;;;5034781;28;20572;-68
2023/05/22 03:32:13;;;;;;;25.00;20.40;;;15.90;99.90;;;;;;5035523;28;20542;-68
2023/05/22 03:34:39;;;;;;;27.50;20.63;;;15.90;99.90;;;;;;5035474;28;20264;-70
2023/05/22 03:37:05;;;;;;;25.43;19.53;;;15.80;99.90;;;;;;5035349;28;20196;-70
2023/05/22 03:39:31;;;;;;;30.00;21.57;;;15.90;99.90;;;;;;5034237;28;20191;-70
2023/05/22 03:41:56;;;;;;;29.67;21.43;;;15.90;99.90;;;;;;5035334;28;20175;-69
2023/05/22 03:44:22;;;;;;;30.60;21.53;;;15.80;99.90;;;;;;5035116;28;20183;-72
2023/05/22 03:46:48;;;;;;;23.83;20.17;;;15.80;99.90;;;;;;5035447;28;20254;-70
2023/05/22 03:49:13;;;;;;;27.90;18.93;;;15.70;99.90;;;;;;5034761;28;20290;-72
2023/05/22 03:51:39;;;;;;;26.77;20.57;;;15.70;99.90;;;;;;5035000;28;20179;-71
2023/05/22 03:54:04;;;;;;;24.93;20.37;;;15.60;99.90;;;;;;5033775;28;20183;-71
2023/05/22 03:56:30;;;;;;;25.80;20.80;;;15.60;99.90;;;;;;5033782;28;20172;-70
2023/05/22 03:58:56;;;;;;;26.43;20.17;;;15.60;99.90;;;;;;5034896;28;20178;-68
2023/05/22 04:01:22;;;;;;;26.07;19.87;;;15.60;99.90;;;;;;5034666;28;20645;-69
2023/05/22 04:03:48;;;;;;;26.40;21.50;;;15.60;99.90;;;;;;5033437;28;20179;-68
2023/05/22 04:06:13;;;;;;;24.47;20.87;;;15.60;99.90;;;;;;5034010;28;20672;-69
2023/05/22 04:08:39;;;;;;;27.87;22.27;;;15.60;99.90;;;;;;5033461;28;20570;-69
2023/05/22 04:11:05;;;;;;;28.23;22.70;;;15.50;99.90;;;;;;5034600;28;20218;-72
2023/05/22 04:13:31;;;;;;;33.17;23.97;;;15.60;99.90;;;;;;5034828;28;20198;-69
2023/05/22 04:15:57;;;;;;;29.83;24.30;;;15.60;99.90;;;;;;5035013;28;20175;-70
2023/05/22 04:18:23;;;;;;;33.37;25.67;;;15.60;99.90;;;;;;5033775;28;20175;-71
2023/05/22 04:20:50;;;;;;;36.00;24.83;;;15.60;99.90;;;;;;5034476;28;20204;-70
2023/05/22 04:23:16;;;;;;;36.43;26.43;;;15.60;99.90;;;;;;5034856;28;20700;-72
2023/05/22 04:25:42;;;;;;;37.83;27.50;;;15.60;99.90;;;;;;5035041;28;20259;-71
2023/05/22 04:28:08;;;;;;;39.57;29.10;;;15.60;99.90;;;;;;5034727;28;20179;-71
2023/05/22 04:30:35;;;;;;;39.87;30.13;;;15.60;99.90;;;;;;5034653;28;20191;-70
2023/05/22 04:33:02;;;;;;;41.63;29.13;;;15.70;99.90;;;;;;5033410;28;20456;-69
2023/05/22 04:35:30;;;;;;;39.13;29.10;;;15.60;99.90;;;;;;5033738;28;20254;-67
2023/05/22 04:38:00;;;;;;;39.53;30.10;;;15.60;99.90;;;;;;5031937;28;20230;-67
2023/05/22 04:40:28;;;;;;;36.10;29.10;;;15.60;99.90;;;;;;5032298;28;20191;-67
2023/05/22 04:42:54;;;;;;;47.07;30.60;;;15.70;99.90;;;;;;5032564;28;20182;-67
2023/05/22 04:45:24;;;;;;;44.93;31.30;;;15.60;99.90;;;;;;5032695;28;20168;-67
2023/05/22 04:47:51;;;;;;;37.47;28.50;;;15.70;99.90;;;;;;5032465;28;20179;-67
2023/05/22 04:50:17;;;;;;;40.60;29.03;;;15.60;99.90;;;;;;5030328;28;20211;-64
2023/05/22 04:52:43;;;;;;;41.77;27.70;;;15.60;99.90;;;;;;5032107;28;20229;-64
2023/05/22 04:55:13;;;;;;;41.50;28.77;;;15.60;99.90;;;;;;5032802;28;20176;-64
2023/05/22 04:57:39;;;;;;;40.40;29.43;;;15.60;99.90;;;;;;5032399;28;20186;-64
2023/05/22 05:00:06;;;;;;;40.97;28.27;;;15.70;99.90;;;;;;5032530;28;20204;-64
2023/05/22 05:02:32;;;;;;;38.83;29.37;;;15.70;99.90;;;;;;5032737;28;20187;-65
2023/05/22 05:04:57;;;;;;;37.70;29.53;;;15.70;99.90;;;;;;5032654;28;20187;-65
2023/05/22 05:07:24;;;;;;;42.60;30.03;;;15.70;99.90;;;;;;5032031;28;20183;-65
2023/05/22 05:09:49;;;;;;;42.37;30.97;;;15.70;99.90;;;;;;5031889;28;20211;-65
2023/05/22 05:12:15;;;;;;;43.43;31.13;;;15.80;99.90;;;;;;5032446;28;20178;-65
2023/05/22 05:14:41;;;;;;;38.30;28.93;;;15.80;99.90;;;;;;5032353;28;20191;-65
2023/05/22 05:17:06;;;;;;;43.30;30.43;;;15.80;99.90;;;;;;5032067;28;20250;-65
2023/05/22 05:19:33;;;;;;;39.87;29.97;;;15.90;99.90;;;;;;5031701;28;20204;-65
2023/05/22 05:21:59;;;;;;;39.53;29.33;;;15.90;99.90;;;;;;5031985;28;20672;-65
2023/05/22 05:24:24;;;;;;;44.07;30.47;;;15.90;99.90;;;;;;5032082;28;20237;-65
2023/05/22 05:26:50;;;;;;;45.17;29.97;;;15.90;99.90;;;;;;5031917;28;20211;-65
2023/05/22 05:29:16;;;;;;;44.37;30.97;;;15.90;99.90;;;;;;5030561;28;20223;-65
2023/05/22 05:31:42;;;;;;;53.00;32.60;;;16.00;99.90;;;;;;5031555;28;20180;-65
2023/05/22 05:34:07;;;;;;;42.23;30.10;;;16.00;99.90;;;;;;5031966;28;20633;-65
2023/05/22 05:36:33;;;;;;;48.37;31.50;;;16.00;99.90;;;;;;5031649;28;20171;-65
2023/05/22 05:38:59;;;;;;;49.63;30.60;;;16.00;99.90;;;;;;5031926;28;20171;-65
2023/05/22 05:41:25;;;;;;;47.87;31.87;;;15.90;99.90;;;;;;5030224;28;20182;-65
2023/05/22 05:43:51;;;;;;;50.93;32.47;;;16.00;99.90;;;;;;5030941;28;20179;-65
2023/05/22 05:46:17;;;;;;;43.53;29.60;;;16.10;99.90;;;;;;5031669;28;20245;-65
2023/05/22 05:48:43;;;;;;;46.67;30.47;;;16.20;99.90;;;;;;5031455;28;20195;-65
2023/05/22 05:51:09;;;;;;;47.57;31.13;;;16.30;99.90;;;;;;5031233;28;20187;-65
2023/05/22 05:53:39;;;;;;;46.10;30.73;;;16.30;99.90;;;;;;5031461;28;20660;-65
2023/05/22 05:56:06;;;;;;;47.43;32.13;;;16.30;99.90;;;;;;5031403;28;20163;-65
2023/05/22 05:58:32;;;;;;;46.80;30.93;;;16.40;99.90;;;;;;5031301;28;20174;-65
2023/05/22 06:00:57;;;;;;;46.00;30.60;;;16.50;99.90;;;;;;5030845;28;20286;-65
2023/05/22 06:03:24;;;;;;;49.80;31.73;;;16.70;99.90;;;;;;5031219;28;20248;-65
2023/05/22 06:05:50;;;;;;;45.50;30.63;;;16.70;99.90;;;;;;5031196;28;20526;-65
2023/05/22 06:08:15;;;;;;;37.87;26.87;;;16.80;99.90;;;;;;5029540;28;20580;-65
2023/05/22 06:10:41;;;;;;;45.07;29.43;;;16.80;99.90;;;;;;5030653;28;20282;-65
2023/05/22 06:13:07;;;;;;;42.57;28.20;;;16.80;99.90;;;;;;5031686;28;20258;-65
2023/05/22 06:15:33;;;;;;;41.93;27.03;;;16.80;99.90;;;;;;5030930;28;20175;-65
2023/05/22 06:17:58;;;;;;;41.93;28.33;;;17.00;99.90;;;;;;5031270;28;20714;-65
2023/05/22 06:20:24;;;;;;;41.37;26.90;;;17.00;99.90;;;;;;5031092;28;20203;-65
2023/05/22 06:22:50;;;;;;;41.23;27.87;;;17.10;99.90;;;;;;5031238;28;20187;-64
2023/05/22 06:25:16;;;;;;;42.23;26.33;;;17.10;99.90;;;;;;5030867;28;20187;-65
2023/05/22 06:27:41;;;;;;;39.10;27.47;;;17.10;99.90;;;;;;5031099;28;20171;-65
2023/05/22 06:30:08;;;;;;;43.23;28.03;;;17.20;99.90;;;;;;5030545;28;20758;-65
2023/05/22 06:32:34;;;;;;;43.60;27.73;;;17.20;99.90;;;;;;5030930;28;20178;-65
2023/05/22 06:34:59;;;;;;;37.27;26.37;;;17.20;99.90;;;;;;5030807;28;20534;-65
2023/05/22 06:37:25;;;;;;;36.93;27.30;;;17.40;99.90;;;;;;5030979;28;20637;-65
2023/05/22 06:39:50;;;;;;;40.83;28.20;;;17.60;99.90;;;;;;5030729;28;20207;-65
2023/05/22 06:42:16;;;;;;;38.70;28.27;;;17.60;99.90;;;;;;5030996;28;20653;-65
2023/05/22 06:44:42;;;;;;;40.37;29.13;;;17.70;99.90;;;;;;5030317;28;20176;-65
2023/05/22 06:47:07;;;;;;;41.27;28.73;;;17.80;99.90;;;;;;5031086;28;20598;-65
2023/05/22 06:49:33;;;;;;;39.90;29.37;;;17.80;99.90;;;;;;5030091;28;20215;-64
2023/05/22 06:51:58;;;;;;;40.13;27.23;;;17.80;99.90;;;;;;5030642;28;20180;-65
2023/05/22 06:54:27;;;;;;;39.87;26.77;;;17.90;99.90;;;;;;5031017;28;20531;-65
2023/05/22 06:56:53;;;;;;;43.43;30.63;;;17.90;99.90;;;;;;5030709;28;20178;-64
2023/05/22 06:59:19;;;;;;;34.43;27.57;;;17.90;99.90;;;;;;5030849;28;20266;-65
2023/05/22 07:01:45;;;;;;;39.13;27.03;;;17.90;99.90;;;;;;5030263;28;20210;-65
2023/05/22 07:04:12;;;;;;;38.93;26.13;;;18.00;99.90;;;;;;5031067;28;20171;-65
2023/05/22 07:06:40;;;;;;;40.13;26.37;;;18.10;99.90;;;;;;5031058;28;20179;-65
2023/05/22 07:09:06;;;;;;;35.93;26.00;;;18.10;99.90;;;;;;5030611;28;20746;-65
2023/05/22 07:11:32;;;;;;;38.70;27.23;;;18.20;99.90;;;;;;5030573;28;20186;-64
2023/05/22 07:13:57;;;;;;;36.73;32.73;;;18.30;99.90;;;;;;5031300;28;20250;-65
2023/05/22 07:16:24;;;;;;;32.63;26.47;;;18.40;99.90;;;;;;5034195;28;20440;-65
2023/05/22 07:18:50;;;;;;;35.13;25.13;;;18.60;99.90;;;;;;5034324;28;20712;-65
2023/05/22 07:21:15;;;;;;;32.20;24.50;;;18.40;99.90;;;;;;5033995;28;20259;-65
2023/05/22 07:23:41;;;;;;;34.20;24.97;;;18.40;99.90;;;;;;5034160;28;20249;-65
2023/05/22 07:26:08;;;;;;;35.53;26.53;;;18.70;99.90;;;;;;5034179;28;20219;-65
2023/05/22 07:28:34;;;;;;;33.43;25.30;;;18.70;99.90;;;;;;5034163;28;20198;-65
2023/05/22 07:30:59;;;;;;;33.83;25.47;;;18.60;99.90;;;;;;5034170;28;20562;-65
2023/05/22 07:33:25;;;;;;;29.33;21.93;;;18.50;99.90;;;;;;5034177;28;20175;-65
2023/05/22 07:35:50;;;;;;;29.20;23.70;;;18.50;99.90;;;;;;5033942;28;20592;-65
2023/05/22 07:38:17;;;;;;;32.47;23.60;;;18.50;99.90;;;;;;5034245;28;20167;-65
2023/05/22 07:40:42;;;;;;;36.40;23.13;;;18.60;99.90;;;;;;5032155;28;20191;-65
2023/05/22 07:43:08;;;;;;;35.63;23.00;;;18.70;99.90;;;;;;5033122;28;20711;-65
2023/05/22 07:45:34;;;;;;;31.50;27.13;;;18.80;99.90;;;;;;5033662;28;20183;-65
2023/05/22 07:48:00;;;;;;;34.77;24.00;;;19.10;99.90;;;;;;5033782;28;20258;-65
2023/05/22 07:50:26;;;;;;;28.83;20.97;;;19.20;99.90;;;;;;5033348;28;20277;-65
2023/05/22 07:52:52;;;;;;;26.87;20.20;;;19.30;99.90;;;;;;5034024;28;20651;-65
2023/05/22 07:55:17;;;;;;;30.50;21.37;;;19.40;99.90;;;;;;5033551;28;20673;-65
2023/05/22 07:57:43;;;;;;;28.33;22.60;;;19.30;99.90;;;;;;5033612;28;20182;-65
2023/05/22 08:00:11;;;;;;;25.63;21.83;;;19.30;99.90;;;;;;5031883;28;20253;-65
2023/05/22 08:02:37;;;;;;;31.33;22.87;;;19.30;99.90;;;;;;5032135;28;20187;-65
2023/05/22 08:05:03;;;;;;;28.43;20.97;;;19.40;99.90;;;;;;5033601;28;20663;-65
2023/05/22 08:07:29;;;;;;;30.57;22.23;;;19.70;99.90;;;;;;5033050;28;20274;-65
2023/05/22 08:09:55;;;;;;;27.13;21.70;;;19.90;99.90;;;;;;5033167;28;20239;-65
2023/05/22 08:12:20;;;;;;;30.45;22.05;;;20.10;99.90;;;;;;5033700;28;20214;-64
2023/05/22 08:14:47;;;;;;;29.55;22.70;;;20.20;99.90;;;;;;5033635;28;20650;-65
2023/05/22 08:17:12;;;;;;;29.10;22.33;;;20.50;99.90;;;;;;5033115;28;20206;-64
2023/05/22 08:19:38;;;;;;;26.48;20.15;;;20.70;99.90;;;;;;5032779;28;20691;-64
2023/05/22 08:22:04;;;;;;;28.08;24.63;;;20.70;99.90;;;;;;5030803;28;20200;-64
2023/05/22 08:24:30;;;;;;;30.77;23.50;;;20.60;99.90;;;;;;5032976;28;20176;-65
2023/05/22 08:26:57;;;;;;;31.73;21.58;;;20.60;99.90;;;;;;5032731;28;20577;-64
2023/05/22 08:29:23;;;;;;;32.50;23.45;;;20.60;99.90;;;;;;5032511;28;20491;-65
2023/05/22 08:31:49;;;;;;;33.55;23.80;;;20.60;99.90;;;;;;5032529;28;20649;-64
2023/05/22 08:34:14;;;;;;;29.33;23.17;;;20.60;99.90;;;;;;5032865;28;20175;-65
2023/05/22 08:36:40;;;;;;;30.40;21.67;;;20.70;99.90;;;;;;5032486;28;20546;-65
2023/05/22 08:39:08;;;;;;;35.58;22.88;;;20.80;99.90;;;;;;5032394;28;20210;-64
2023/05/22 08:41:34;;;;;;;35.03;27.45;;;20.80;99.90;;;;;;5032548;28;20179;-65
2023/05/22 08:44:00;;;;;;;35.27;31.53;;;20.70;99.90;;;;;;5031751;28;20183;-65
2023/05/22 08:46:26;;;;;;;31.83;26.90;;;20.40;99.90;;;;;;5032508;28;20749;-65
2023/05/22 08:48:56;;;;;;;34.03;22.63;;;20.20;99.90;;;;;;5032462;28;20210;-64
2023/05/22 08:51:24;;;;;;;32.87;26.70;;;20.20;99.90;;;;;;5012526;28;20184;-65
2023/05/22 08:53:53;;;;;;;36.13;24.63;;;20.30;99.90;;;;;;5023606;28;20638;-65
2023/05/22 08:56:20;;;;;;;36.55;24.48;;;20.30;99.90;;;;;;5032521;28;20178;-64
2023/05/22 08:58:45;;;;;;;30.75;23.38;;;20.30;99.90;;;;;;5032188;28;20191;-65
2023/05/22 09:01:13;;;;;;;37.17;26.75;;;20.20;99.90;;;;;;5032280;28;20179;-65
2023/05/22 09:03:38;;;;;;;31.48;23.77;;;20.30;99.90;;;;;;5032337;28;20192;-65
2023/05/22 09:06:08;;;;;;;37.33;33.70;;;20.60;99.90;;;;;;5015744;28;20195;-65
2023/05/22 09:08:34;;;;;;;33.83;26.58;;;20.60;99.90;;;;;;5019546;28;20577;-64
2023/05/22 09:10:59;;;;;;;33.97;24.90;;;20.80;99.90;;;;;;5031970;28;20199;-65
2023/05/22 09:13:27;;;;;;;29.80;24.65;;;21.00;99.90;;;;;;5031700;28;20183;-65
2023/05/22 09:16:09;;;;;;;32.80;26.55;;;21.00;99.90;;;;;;5031870;28;20274;-64
2023/05/22 09:18:39;;;;;;;33.63;24.98;;;21.00;99.90;;;;;;5031136;28;20190;-64
2023/05/22 09:21:06;;;;;;;32.88;23.63;;;21.10;99.90;;;;;;5031677;28;20660;-64
2023/05/22 09:23:31;;;;;;;31.95;21.60;;;21.30;99.90;;;;;;5031780;28;20255;-65
2023/05/22 09:25:59;;;;;;;28.92;21.23;;;21.40;99.90;;;;;;5030756;28;20274;-65
2023/05/22 09:28:25;;;;;;;33.90;25.88;;;21.50;99.90;;;;;;5031637;28;20186;-65
2023/05/22 09:30:52;;;;;;;36.22;25.20;;;21.70;99.90;;;;;;5031587;28;20195;-65
2023/05/22 09:33:18;;;;;;;29.55;24.75;;;21.70;99.90;;;;;;5031563;28;20171;-65
2023/05/22 09:35:51;;;;;;;33.60;26.15;;;21.80;99.90;;;;;;5031816;28;20167;-65
2023/05/22 09:38:17;;;;;;;32.47;23.77;;;21.80;99.90;;;;;;5031114;28;20209;-65
2023/05/22 09:40:43;;;;;;;34.00;23.55;;;21.90;99.90;;;;;;5031574;28;20191;-64
2023/05/22 09:43:16;;;;;;;28.73;22.63;;;22.10;99.90;;;;;;5030815;28;20775;-64
2023/05/22 09:45:42;;;;;;;33.92;24.77;;;22.10;99.90;;;;;;5031867;28;20686;-64
2023/05/22 09:48:09;;;;;;;32.35;25.00;;;22.20;99.90;;;;;;5031368;28;20262;-65
2023/05/22 09:50:41;;;;;;;39.95;28.75;;;22.10;99.90;;;;;;5031298;28;20560;-65
2023/05/22 09:53:07;;;;;;;35.83;25.42;;;21.90;99.90;;;;;;5031570;28;20664;-65
2023/05/22 09:55:35;;;;;;;29.80;22.95;;;21.70;99.90;;;;;;5011930;28;20172;-65
2023/05/22 09:58:03;;;;;;;33.30;24.40;;;21.80;99.90;;;;;;5011802;28;20172;-65
2023/05/22 10:00:30;;;;;;;34.53;24.25;;;21.80;99.90;;;;;;5030678;28;20257;-65
2023/05/22 10:03:02;;;;;;;40.17;28.90;;;21.90;99.90;;;;;;5031712;28;20179;-65
2023/05/22 10:05:30;;;;;;;37.60;29.25;;;21.70;99.90;;;;;;5031113;28;20191;-65
2023/05/22 10:08:12;;;;;;;31.92;25.63;;;21.70;99.90;;;;;;5031328;28;20251;-65
2023/05/22 10:10:41;;;;;;;39.92;29.42;;;21.70;99.90;;;;;;5030872;28;20299;-65
2023/05/22 10:13:07;;;;;;;36.72;27.85;;;21.70;99.90;;;;;;5031508;28;20168;-67
2023/05/22 10:15:35;;;;;;;37.42;28.50;;;21.60;99.90;;;;;;5031111;28;20237;-65
2023/05/22 10:18:01;;;;;;;38.38;27.15;;;21.40;99.90;;;;;;5031273;28;20259;-65
2023/05/22 10:20:28;;;;;;;39.55;28.65;;;21.30;99.90;;;;;;5030719;28;20272;-65
2023/05/22 10:22:54;;;;;;;39.50;26.05;;;21.00;99.90;;;;;;5031450;28;20179;-65
2023/05/22 10:25:21;;;;;;;38.50;26.75;;;21.00;99.90;;;;;;5031568;28;20183;-68
2023/05/22 10:27:48;;;;;;;37.97;27.85;;;20.80;99.90;;;;;;5031453;28;20229;-64
2023/05/22 10:30:23;;;;;;;42.22;26.70;;;20.70;99.90;;;;;;5030499;28;20207;-65
2023/05/22 10:32:59;;;;;;;36.03;25.97;;;20.60;99.90;;;;;;5031381;28;20519;-65
2023/05/22 10:35:51;;;;;;;41.80;26.80;;;20.50;99.90;;;;;;5031025;28;20541;-65
2023/05/22 10:38:19;;;;;;;35.22;24.45;;;20.50;99.90;;;;;;5031047;28;20180;-65
2023/05/22 10:40:46;;;;;;;39.20;26.52;;;20.60;99.90;;;;;;5031152;28;20559;-65
2023/05/22 10:43:12;;;;;;;38.27;24.83;;;20.50;99.90;;;;;;5029797;28;20172;-65
2023/05/22 10:45:38;;;;;;;42.83;28.27;;;20.70;99.90;;;;;;5031305;28;20210;-65
2023/05/22 10:48:11;;;;;;;45.33;30.63;;;20.90;99.90;;;;;;5030842;28;20196;-65
2023/05/22 10:50:37;;;;;;;41.45;28.42;;;21.20;99.90;;;;;;5033875;28;20230;-65
2023/05/22 10:53:24;;;;;;;42.17;26.52;;;21.60;99.90;;;;;;5034934;28;20176;-65
2023/05/22 10:55:54;;;;;;;36.67;27.77;;;21.60;99.90;;;;;;5034791;28;20199;-65
2023/05/22 10:58:32;;;;;;;39.72;29.25;;;21.60;99.90;;;;;;5034440;28;20215;-65
2023/05/22 11:01:19;;;;;;;32.47;27.70;;;21.60;99.90;;;;;;5034567;28;20193;-65
2023/05/22 11:04:00;;;;;;;35.00;27.17;;;21.60;99.90;;;;;;5015029;28;20183;-65
2023/05/22 11:06:45;;;;;;;32.83;26.23;;;21.80;99.90;;;;;;5015767;28;20167;-65
2023/05/22 11:09:32;;;;;;;33.55;28.90;;;22.00;99.90;;;;;;5034658;28;20203;-65
2023/05/22 11:12:26;;;;;;;33.22;26.17;;;21.90;99.90;;;;;;5034447;28;20223;-65
2023/05/22 11:14:56;;;;;;;32.10;23.67;;;22.10;99.90;;;;;;5033281;28;20199;-65
2023/05/22 11:17:29;;;;;;;36.10;25.02;;;22.20;99.90;;;;;;5032930;28;20222;-65
2023/05/22 11:20:03;;;;;;;32.15;22.42;;;22.40;99.90;;;;;;5032425;28;20227;-64
2023/05/22 11:22:36;;;;;;;34.50;23.27;;;22.50;99.90;;;;;;5034460;28;20672;-65
2023/05/22 11:25:10;;;;;;;33.30;24.33;;;22.80;99.90;;;;;;5034615;28;20180;-65
2023/05/22 11:27:37;;;;;;;36.75;25.65;;;22.80;99.90;;;;;;5034102;28;20183;-64
2023/05/22 11:30:04;;;;;;;33.17;25.33;;;22.70;99.90;;;;;;5033940;28;20203;-65
2023/05/22 11:32:29;;;;;;;33.88;23.83;;;23.20;99.90;;;;;;5033946;28;20186;-65
2023/05/22 11:34:58;;;;;;;31.77;23.15;;;24.00;99.90;;;;;;5034285;28;20164;-65
2023/05/22 11:37:23;;;;;;;27.38;20.42;;;24.60;99.90;;;;;;5033350;28;20263;-66
2023/05/22 11:39:57;;;;;;;28.67;22.20;;;24.90;99.90;;;;;;5032819;28;20199;-65
2023/05/22 11:42:23;;;;;;;27.77;21.40;;;25.40;99.90;;;;;;5034098;28;20188;-65
2023/05/22 11:44:49;;;;;;;34.67;22.98;;;25.40;99.90;;;;;;5033958;28;20199;-65
2023/05/22 11:47:15;;;;;;;30.50;23.42;;;25.30;99.90;;;;;;5033723;28;20180;-65
2023/05/22 11:49:41;;;;;;;33.80;22.58;;;25.10;99.90;;;;;;5033464;28;20601;-65
2023/05/22 11:52:08;;;;;;;28.83;23.33;;;25.20;99.90;;;;;;5033517;28;20514;-65
2023/05/22 11:54:34;;;;;;;34.38;24.67;;;25.40;99.90;;;;;;5033405;28;20247;-66
2023/05/22 11:57:03;;;;;;;39.60;24.88;;;25.30;99.90;;;;;;5033144;28;20266;-65
2023/05/22 11:59:28;;;;;;;35.35;23.20;;;25.50;99.90;;;;;;5032837;28;20612;-65
2023/05/22 12:01:54;;;;;;;31.55;22.15;;;25.70;99.90;;;;;;5033298;28;20203;-65
2023/05/22 12:04:21;;;;;;;33.10;23.40;;;26.10;99.90;;;;;;5033477;28;20530;-66
2023/05/22 12:06:46;;;;;;;33.28;22.75;;;26.10;99.90;;;;;;5033820;28;20555;-65
2023/05/22 12:09:12;;;;;;;34.03;22.50;;;26.00;99.90;;;;;;5033140;28;20290;-65
2023/05/22 12:11:38;;;;;;;30.20;20.90;;;25.80;99.90;;;;;;5033116;28;20759;-65
2023/05/22 12:14:04;;;;;;;30.15;21.58;;;25.80;99.90;;;;;;5033612;28;20634;-65
2023/05/22 12:16:35;;;;;;;32.80;21.83;;;25.90;99.90;;;;;;5033061;28;20270;-66
2023/05/22 12:19:08;;;;;;;34.67;23.30;;;26.00;99.90;;;;;;5033487;28;20168;-65
2023/05/22 12:21:35;;;;;;;33.72;23.33;;;26.20;99.90;;;;;;5033002;28;20187;-65
2023/05/22 12:24:05;;;;;;;35.75;22.05;;;26.00;99.90;;;;;;5033196;28;20210;-65
2023/05/22 12:26:31;;;;;;;32.65;21.50;;;25.70;99.90;;;;;;5032896;28;20250;-66
2023/05/22 12:28:58;;;;;;;30.77;22.15;;;25.70;99.90;;;;;;5033126;28;20199;-66
2023/05/22 12:31:24;;;;;;;30.60;21.83;;;25.80;99.90;;;;;;5032541;28;20707;-66